Time;durP1;ratioP1;P1;durP2;ratioP2;P2;SDS_P1;SDS_P2;PMS_P1;PMS_P2;Temp;Humidity;BMP_temperature;BMP_pressure;BME280_temperature;BME280_humidity;BME280_pressure;Samples;Min_cycle;Max_cycle;Signal;HPM_P1;HPM_P2
2023/06/21 00:01:12;;;;;;;7.75;5.88;;;;;;;21.41;100.00;98196.06;4181991;28;20444;-73
2023/06/21 00:03:13;;;;;;;6.93;5.50;;;;;;;21.39;100.00;98190.13;4174238;28;20048;-74
2023/06/21 00:05:16;;;;;;;8.32;5.40;;;;;;;21.36;100.00;98186.22;4174479;28;20099;-73
2023/06/21 00:07:22;;;;;;;7.18;6.10;;;;;;;21.33;100.00;98189.13;4174359;28;20045;-73
2023/06/21 00:09:22;;;;;;;9.40;5.72;;;;;;;21.25;100.00;98194.22;4179952;28;20603;-74
2023/06/21 00:11:23;;;;;;;8.40;5.82;;;;;;;21.20;100.00;98203.25;4187735;28;20055;-74
2023/06/21 00:13:23;;;;;;;8.77;5.30;;;;;;;21.11;100.00;98198.34;4188310;28;20033;-74
2023/06/21 00:15:24;;;;;;;6.25;4.97;;;;;;;21.02;100.00;98215.13;4188039;28;20075;-74
2023/06/21 00:17:25;;;;;;;8.18;5.32;;;;;;;20.94;100.00;98216.63;4189087;28;20040;-73
2023/06/21 00:19:25;;;;;;;7.10;5.25;;;;;;;20.88;100.00;98218.41;4189295;28;20488;-74
2023/06/21 00:21:26;;;;;;;8.30;5.68;;;;;;;20.78;100.00;98219.56;4176663;28;20048;-74
2023/06/21 00:23:26;;;;;;;9.48;5.78;;;;;;;20.71;100.00;98223.41;4176955;28;20112;-74
2023/06/21 00:25:26;;;;;;;8.13;6.45;;;;;;;20.56;100.00;98216.69;4179364;28;20045;-74
2023/06/21 00:27:27;;;;;;;11.23;6.60;;;;;;;20.50;100.00;98224.09;4181739;28;20060;-74
2023/06/21 00:29:27;;;;;;;7.78;6.00;;;;;;;20.37;100.00;98212.84;4173663;28;20052;-74
2023/06/21 00:31:27;;;;;;;8.27;5.97;;;;;;;20.27;100.00;98214.75;4182712;28;20036;-74
2023/06/21 00:33:27;;;;;;;10.80;6.32;;;;;;;20.20;100.00;98215.78;4175981;28;20120;-73
2023/06/21 00:35:28;;;;;;;9.68;6.95;;;;;;;20.13;100.00;98227.22;4174652;28;20045;-74
2023/06/21 00:37:28;;;;;;;9.85;6.30;;;;;;;20.06;100.00;98223.84;4174071;28;20444;-73
2023/06/21 00:39:29;;;;;;;8.95;6.15;;;;;;;19.96;100.00;98222.94;4174383;28;20160;-74
2023/06/21 00:41:29;;;;;;;12.27;6.68;;;;;;;19.91;100.00;98234.72;4185519;28;20167;-74
2023/06/21 00:43:30;;;;;;;8.88;6.13;;;;;;;19.83;100.00;98230.53;4184711;28;20132;-74
2023/06/21 00:45:39;;;;;;;8.68;6.57;;;;;;;19.75;100.00;98227.16;4183627;28;20102;-74
2023/06/21 00:47:40;;;;;;;9.02;6.32;;;;;;;19.72;100.00;98227.28;4173949;28;20041;-74
2023/06/21 00:49:40;;;;;;;10.23;6.45;;;;;;;19.65;100.00;98205.81;4173953;28;20033;-74
2023/06/21 00:51:41;;;;;;;9.98;6.93;;;;;;;19.62;100.00;98215.91;4185230;28;20037;-74
2023/06/21 00:53:42;;;;;;;9.43;6.45;;;;;;;19.52;100.00;98210.56;4183411;28;20040;-73
2023/06/21 00:55:42;;;;;;;11.25;6.70;;;;;;;19.53;100.00;98206.56;4174489;28;20072;-74
2023/06/21 00:57:44;;;;;;;8.20;6.20;;;;;;;19.51;100.00;98212.59;4189024;28;20144;-73
2023/06/21 00:59:44;;;;;;;8.52;5.90;;;;;;;19.46;100.00;98207.53;4187808;28;20045;-73
2023/06/21 01:01:44;;;;;;;9.52;6.10;;;;;;;19.41;100.00;98207.28;4171798;28;20050;-74
2023/06/21 01:03:45;;;;;;;10.20;5.95;;;;;;;19.40;100.00;98211.31;4173225;28;20025;-74
2023/06/21 01:06:12;;;;;;;10.35;6.50;;;;;;;19.36;100.00;98206.63;4177057;28;20853;-74
2023/06/21 01:08:29;;;;;;;13.93;6.55;;;;;;;19.26;100.00;98212.50;4179358;28;20430;-74
2023/06/21 01:10:35;;;;;;;8.18;6.32;;;;;;;19.16;100.00;98208.75;4182613;28;20441;-74
2023/06/21 01:12:58;;;;;;;12.63;7.32;;;;;;;19.11;100.00;98206.50;4176661;28;20041;-74
2023/06/21 01:14:58;;;;;;;;;;;;;;;19.09;100.00;98215.34;4173871;28;20546;-73
2023/06/21 01:17:01;;;;;;;9.33;7.07;;;;;;;19.05;100.00;98211.88;4174016;28;19974;-74
2023/06/21 01:19:04;;;;;;;7.40;6.13;;;;;;;19.03;100.00;98221.94;4183160;28;20279;-74
2023/06/21 01:21:05;;;;;;;8.00;6.00;;;;;;;18.96;100.00;98214.50;4178413;28;20040;-74
2023/06/21 01:23:38;;;;;;;14.95;6.28;;;;;;;18.95;100.00;98221.34;4183345;28;20376;-74
2023/06/21 01:26:09;;;;;;;10.60;6.55;;;;;;;18.95;100.00;98220.53;4186012;28;20051;-74
2023/06/21 01:28:47;;;;;;;8.23;6.00;;;;;;;18.94;100.00;98221.78;4173126;28;20284;-73
2023/06/21 01:30:48;;;;;;;10.27;6.72;;;;;;;18.88;100.00;98221.53;4177244;28;20044;-74
2023/06/21 01:32:53;;;;;;;9.30;6.20;;;;;;;18.84;100.00;98225.66;4182060;28;20049;-74
2023/06/21 01:34:55;;;;;;;8.05;6.60;;;;;;;18.82;100.00;98226.09;4177884;28;20045;-74
2023/06/21 01:36:57;;;;;;;6.03;5.43;;;;;;;18.74;100.00;98219.88;4174585;28;20056;-74
2023/06/21 01:39:00;;;;;;;9.48;7.38;;;;;;;18.65;100.00;98230.09;4179736;28;20041;-73
2023/06/21 01:41:01;;;;;;;8.70;6.83;;;;;;;18.56;100.00;98227.13;4175463;28;20037;-74
2023/06/21 01:43:02;;;;;;;8.23;7.13;;;;;;;18.51;100.00;98223.59;4175408;28;20359;-74
2023/06/21 01:45:02;;;;;;;10.95;6.07;;;;;;;18.50;100.00;98226.84;4176703;28;20443;-74
2023/06/21 01:47:04;;;;;;;7.55;6.20;;;;;;;18.55;100.00;98225.56;4172883;28;20033;-74
2023/06/21 01:49:06;;;;;;;11.15;5.95;;;;;;;18.59;100.00;98223.44;4173663;28;20063;-74
2023/06/21 01:51:07;;;;;;;12.73;7.47;;;;;;;18.53;100.00;98226.78;4178825;28;20033;-74
2023/06/21 01:53:09;;;;;;;8.20;6.75;;;;;;;18.43;100.00;98215.81;4185648;28;20052;-74
2023/06/21 01:55:10;;;;;;;13.93;7.78;;;;;;;18.34;100.00;98224.03;4189016;28;20155;-73
2023/06/21 01:57:13;;;;;;;21.05;7.45;;;;;;;18.23;100.00;98219.50;4185018;28;20158;-74
2023/06/21 01:59:14;;;;;;;15.55;7.68;;;;;;;18.18;100.00;98222.78;4188131;28;20040;-74
2023/06/21 02:01:18;;;;;;;10.25;7.22;;;;;;;18.13;100.00;98219.75;4182843;28;20124;-74
2023/06/21 02:03:21;;;;;;;11.15;7.20;;;;;;;18.11;100.00;98234.16;4184299;28;20472;-74
2023/06/21 02:05:23;;;;;;;10.05;6.63;;;;;;;18.07;100.00;98233.47;4187574;28;20097;-73
2023/06/21 02:07:23;;;;;;;8.97;6.80;;;;;;;18.10;100.00;98229.78;4188666;28;20327;-74
2023/06/21 02:09:25;;;;;;;11.32;7.60;;;;;;;18.04;100.00;98239.94;4187849;28;20384;-73
2023/06/21 02:11:27;;;;;;;10.30;7.03;;;;;;;17.94;100.00;98232.53;4183743;28;20060;-74
2023/06/21 02:13:27;;;;;;;11.50;7.72;;;;;;;17.88;100.00;98242.69;4184356;28;20431;-73
2023/06/21 02:15:28;;;;;;;10.13;7.53;;;;;;;17.86;100.00;98245.91;4179498;28;20045;-74
2023/06/21 02:17:29;;;;;;;9.75;7.15;;;;;;;17.84;100.00;98242.75;4181301;28;20033;-74
2023/06/21 02:19:30;;;;;;;13.95;7.32;;;;;;;17.93;100.00;98239.38;4180907;28;20037;-74
2023/06/21 02:21:30;;;;;;;8.95;6.68;;;;;;;17.99;100.00;98242.44;4181483;28;20090;-74
2023/06/21 02:23:30;;;;;;;10.93;6.30;;;;;;;18.04;100.00;98239.13;4173300;28;20045;-74
2023/06/21 02:25:35;;;;;;;10.15;6.85;;;;;;;18.10;100.00;98248.59;4172489;28;20067;-74
2023/06/21 02:27:35;;;;;;;8.80;7.78;;;;;;;18.05;100.00;98251.91;4181780;28;20033;-74
2023/06/21 02:29:36;;;;;;;11.85;6.90;;;;;;;17.98;100.00;98244.47;4188460;28;20040;-74
2023/06/21 02:31:36;;;;;;;12.30;7.35;;;;;;;17.95;100.00;98256.50;4175889;28;20041;-74
2023/06/21 02:33:36;;;;;;;15.48;7.82;;;;;;;17.82;100.00;98259.19;4187085;28;20048;-73
2023/06/21 02:35:37;;;;;;;11.25;7.60;;;;;;;17.78;100.00;98257.69;4175783;28;20041;-74
2023/06/21 02:37:37;;;;;;;9.98;6.90;;;;;;;17.77;100.00;98259.69;4176020;28;20045;-73
2023/06/21 02:39:38;;;;;;;15.93;8.23;;;;;;;17.69;100.00;98264.59;4175692;28;20555;-74
2023/06/21 02:41:38;;;;;;;12.13;7.88;;;;;;;17.64;100.00;98261.53;4190343;28;20106;-74
2023/06/21 02:43:38;;;;;;;7.90;6.55;;;;;;;17.60;100.00;98261.59;4176012;28;20440;-74
2023/06/21 02:45:39;;;;;;;13.18;7.85;;;;;;;17.61;100.00;98265.19;4176641;28;20040;-74
2023/06/21 02:47:39;;;;;;;15.02;9.15;;;;;;;17.56;100.00;98276.88;4175558;28;20041;-74
2023/06/21 02:49:39;;;;;;;17.73;8.65;;;;;;;17.56;100.00;98276.88;4175943;28;20049;-74
2023/06/21 02:51:40;;;;;;;26.85;8.80;;;;;;;17.51;100.00;98280.97;4174825;28;20128;-73
2023/06/21 02:53:40;;;;;;;17.05;8.40;;;;;;;17.47;100.00;98279.47;4180272;28;20040;-72
2023/06/21 02:55:40;;;;;;;12.27;7.30;;;;;;;17.46;100.00;98281.47;4191652;28;20063;-75
2023/06/21 02:57:40;;;;;;;16.45;8.23;;;;;;;17.40;100.00;98286.78;4189615;28;20094;-75
2023/06/21 02:59:42;;;;;;;14.90;8.60;;;;;;;17.35;100.00;98292.84;4190340;28;20048;-75
2023/06/21 03:01:46;;;;;;;20.02;8.85;;;;;;;17.30;100.00;98290.56;4179044;28;20447;-75
2023/06/21 03:03:47;;;;;;;18.52;8.63;;;;;;;17.30;100.00;98292.56;4180499;28;20375;-75
2023/06/21 03:05:47;;;;;;;22.13;9.38;;;;;;;17.25;100.00;98298.63;4175149;28;20139;-75
2023/06/21 03:07:47;;;;;;;18.15;8.15;;;;;;;17.26;100.00;98294.63;4175136;28;20797;-75
2023/06/21 03:09:48;;;;;;;15.10;9.13;;;;;;;17.21;100.00;98300.69;4174909;28;20128;-75
2023/06/21 03:11:48;;;;;;;16.95;8.15;;;;;;;17.18;100.00;98307.16;4186125;28;20117;-75
2023/06/21 03:13:49;;;;;;;16.13;8.18;;;;;;;17.13;100.00;98300.06;4174410;28;20468;-75
2023/06/21 03:15:49;;;;;;;20.70;8.05;;;;;;;17.17;100.00;98297.19;4175352;28;20106;-75
2023/06/21 03:17:50;;;;;;;18.27;9.10;;;;;;;17.16;100.00;98298.41;4176417;28;20432;-75
2023/06/21 03:19:50;;;;;;;14.38;8.50;;;;;;;17.15;100.00;98306.00;4180340;28;20048;-75
2023/06/21 03:21:50;;;;;;;15.32;8.75;;;;;;;17.13;100.00;98317.63;4177309;28;20045;-75
2023/06/21 03:23:51;;;;;;;16.02;8.10;;;;;;;17.19;100.00;98323.50;4178851;28;20419;-75
2023/06/21 03:25:51;;;;;;;19.05;8.95;;;;;;;17.19;100.00;98328.28;4174840;28;20045;-75
2023/06/21 03:27:51;;;;;;;26.85;9.52;;;;;;;17.16;100.00;98335.53;4186451;28;20416;-75
2023/06/21 03:29:52;;;;;;;15.98;8.18;;;;;;;17.18;100.00;98330.31;4176567;28;20032;-75
2023/06/21 03:31:52;;;;;;;24.45;10.75;;;;;;;17.19;100.00;98329.09;4178520;28;20044;-75
2023/06/21 03:33:52;;;;;;;18.48;8.18;;;;;;;17.19;100.00;98345.84;4177479;28;20546;-75
2023/06/21 03:35:52;;;;;;;20.02;10.23;;;;;;;17.20;100.00;98341.06;4174622;28;20083;-75
2023/06/21 03:37:53;;;;;;;14.23;8.65;;;;;;;17.23;100.00;98348.63;4184353;28;20055;-75
2023/06/21 03:39:54;;;;;;;15.13;8.05;;;;;;;17.24;100.00;98350.97;4183694;28;20132;-75
2023/06/21 03:41:54;;;;;;;13.90;9.07;;;;;;;17.27;100.00;98346.53;4173280;28;20063;-74
2023/06/21 03:43:54;;;;;;;22.38;9.57;;;;;;;17.22;100.00;98355.41;4179277;28;20123;-75
2023/06/21 03:45:54;;;;;;;17.48;8.05;;;;;;;17.16;100.00;98349.50;4176094;28;20534;-74
2023/06/21 03:47:55;;;;;;;14.63;8.43;;;;;;;17.11;100.00;98347.97;4177528;28;20493;-75
2023/06/21 03:49:57;;;;;;;18.70;7.82;;;;;;;17.10;100.00;98348.41;4175193;28;20144;-74
2023/06/21 03:51:57;;;;;;;17.33;8.70;;;;;;;17.09;100.00;98349.63;4179939;28;20044;-75
2023/06/21 03:53:58;;;;;;;22.92;9.85;;;;;;;17.06;100.00;98351.28;4189046;28;20093;-75
2023/06/21 03:55:58;;;;;;;23.27;8.73;;;;;;;17.09;100.00;98346.84;4187254;28;20102;-75
2023/06/21 03:57:58;;;;;;;18.58;8.00;;;;;;;17.07;100.00;98341.69;4178594;28;20059;-75
2023/06/21 03:59:59;;;;;;;21.35;8.18;;;;;;;17.12;100.00;98345.97;4174309;28;20132;-75
2023/06/21 04:01:59;;;;;;;19.17;9.02;;;;;;;17.17;100.00;98348.28;4175551;28;20110;-75
2023/06/21 04:03:59;;;;;;;18.83;8.10;;;;;;;17.27;100.00;98352.91;4177340;28;20520;-75
2023/06/21 04:06:00;;;;;;;20.27;8.10;;;;;;;17.33;100.00;98351.22;4179049;28;20045;-73
2023/06/21 04:08:00;;;;;;;15.80;8.23;;;;;;;17.41;100.00;98354.69;4173899;28;20052;-74
2023/06/21 04:10:00;;;;;;;13.40;8.48;;;;;;;17.46;100.00;98347.78;4189566;28;20036;-73
2023/06/21 04:12:02;;;;;;;11.85;7.82;;;;;;;17.61;100.00;98357.50;4177036;28;20040;-74
2023/06/21 04:14:02;;;;;;;16.25;8.00;;;;;;;17.72;100.00;98357.34;4172976;28;20041;-74
2023/06/21 04:16:02;;;;;;;28.38;9.10;;;;;;;17.86;100.00;98360.63;4189297;28;20020;-74
2023/06/21 04:18:03;;;;;;;16.95;9.35;;;;;;;17.99;100.00;98348.81;4174390;28;20465;-74
2023/06/21 04:20:10;;;;;;;16.83;8.93;;;;;;;18.08;100.00;98347.00;4178858;28;20361;-73
2023/06/21 04:22:11;;;;;;;23.90;9.05;;;;;;;18.22;100.00;98359.94;4175466;28;20389;-74
2023/06/21 04:24:11;;;;;;;17.90;8.15;;;;;;;18.32;100.00;98349.72;4173624;28;20025;-74
2023/06/21 04:26:12;;;;;;;13.55;7.88;;;;;;;18.41;100.00;98353.50;4174739;28;20037;-74
2023/06/21 04:28:12;;;;;;;18.15;8.50;;;;;;;18.55;100.00;98351.63;4176778;28;20039;-73
2023/06/21 04:30:14;;;;;;;18.15;8.05;;;;;;;18.65;100.00;98353.38;4176335;28;20328;-74
2023/06/21 04:32:14;;;;;;;13.15;7.82;;;;;;;18.77;100.00;98356.31;4175238;28;20029;-74
2023/06/21 04:34:14;;;;;;;17.08;8.07;;;;;;;18.89;100.00;98359.66;4174699;28;20453;-73
2023/06/21 04:36:17;;;;;;;16.15;8.75;;;;;;;19.02;100.00;98368.94;4170876;28;20037;-74
2023/06/21 04:38:17;;;;;;;11.55;7.60;;;;;;;19.12;100.00;98381.16;4177492;28;20055;-74
2023/06/21 04:40:21;;;;;;;10.98;8.45;;;;;;;19.15;100.00;98385.88;4177189;28;20032;-73
2023/06/21 04:42:22;;;;;;;18.08;8.70;;;;;;;19.12;100.00;98376.34;4172643;28;20331;-73
2023/06/21 04:44:23;;;;;;;13.85;8.07;;;;;;;19.14;100.00;98390.69;4175559;28;20041;-74
2023/06/21 04:46:26;;;;;;;12.57;7.97;;;;;;;19.19;100.00;98384.56;4112734;28;20036;-74
2023/06/21 04:48:27;;;;;;;12.20;7.80;;;;;;;19.26;100.00;98400.41;4180360;28;20527;-74
2023/06/21 04:50:27;;;;;;;9.75;7.30;;;;;;;19.34;100.00;98402.59;4176619;28;20048;-74
2023/06/21 04:52:28;;;;;;;13.13;7.22;;;;;;;19.39;100.00;98400.50;4176364;28;20033;-73
2023/06/21 04:54:29;;;;;;;10.82;7.15;;;;;;;19.48;100.00;98409.88;4174636;28;20472;-73
2023/06/21 04:56:29;;;;;;;10.45;7.50;;;;;;;19.59;100.00;98416.03;4178440;28;20238;-73
2023/06/21 04:58:35;;;;;;;10.48;6.78;;;;;;;19.72;100.00;98418.13;4174912;28;20041;-74
2023/06/21 05:00:36;;;;;;;9.13;6.95;;;;;;;19.84;100.00;98425.81;4174712;28;20526;-73
2023/06/21 05:02:37;;;;;;;11.75;7.45;;;;;;;19.98;100.00;98427.47;4175966;28;20241;-73
2023/06/21 05:04:37;;;;;;;12.27;6.60;;;;;;;20.08;100.00;98432.78;4176713;28;20388;-74
2023/06/21 05:06:40;;;;;;;10.85;6.75;;;;;;;20.14;100.00;98435.84;4176591;28;20448;-73
2023/06/21 05:08:41;;;;;;;10.75;6.65;;;;;;;20.17;100.00;98432.94;4179475;28;20041;-74
2023/06/21 05:10:41;;;;;;;9.30;7.22;;;;;;;20.23;100.00;98438.81;4177391;28;20033;-74
2023/06/21 05:12:41;;;;;;;8.15;6.80;;;;;;;20.36;100.00;98438.84;4175057;28;20065;-73
2023/06/21 05:14:42;;;;;;;8.27;7.20;;;;;;;20.44;100.00;98443.06;4177133;28;20041;-73
2023/06/21 05:16:42;;;;;;;8.77;7.45;;;;;;;20.48;100.00;98441.72;4175386;28;20067;-74
2023/06/21 05:18:42;;;;;;;10.27;6.88;;;;;;;20.55;100.00;98443.53;4176774;28;20583;-73
2023/06/21 05:20:43;;;;;;;8.57;7.07;;;;;;;20.58;100.00;98442.63;4176596;28;20045;-74
2023/06/21 05:22:43;;;;;;;11.18;7.10;;;;;;;20.63;100.00;98446.94;4176396;28;20798;-73
2023/06/21 05:24:44;;;;;;;8.55;6.05;;;;;;;20.61;100.00;98433.34;4179049;28;20033;-74
2023/06/21 05:26:44;;;;;;;7.85;6.30;;;;;;;20.65;100.00;98445.25;4178426;28;20049;-74
2023/06/21 05:28:44;;;;;;;8.38;6.45;;;;;;;20.71;100.00;98451.91;4170493;28;20040;-74
2023/06/21 05:30:45;;;;;;;9.93;6.70;;;;;;;20.75;100.00;98455.38;4170426;28;20529;-74
2023/06/21 05:32:45;;;;;;;12.88;6.55;;;;;;;20.81;100.00;98446.41;4173487;28;20132;-74
2023/06/21 05:34:46;;;;;;;7.30;6.60;;;;;;;20.89;100.00;98459.00;4178806;28;20045;-72
2023/06/21 05:36:46;;;;;;;10.20;6.85;;;;;;;20.94;100.00;98469.72;4176808;28;20047;-74
2023/06/21 05:38:47;;;;;;;8.68;6.63;;;;;;;20.99;100.00;98452.25;4173151;28;20338;-73
2023/06/21 05:40:47;;;;;;;9.10;6.78;;;;;;;21.03;100.00;98459.38;4179875;28;20094;-73
2023/06/21 05:42:47;;;;;;;10.50;6.95;;;;;;;21.12;100.00;98455.09;4182140;28;20887;-73
2023/06/21 05:44:48;;;;;;;7.88;6.30;;;;;;;21.20;100.00;98462.84;4176421;28;20051;-73
2023/06/21 05:46:48;;;;;;;8.55;6.65;;;;;;;21.28;100.00;98464.25;4175959;28;20053;-73
2023/06/21 05:48:48;;;;;;;9.23;6.55;;;;;;;21.38;100.00;98467.94;4181481;28;20468;-73
2023/06/21 05:50:49;;;;;;;8.57;6.68;;;;;;;21.40;100.00;98468.28;4171686;28;20327;-73
2023/06/21 05:52:50;;;;;;;9.02;7.05;;;;;;;21.45;100.00;98472.56;4175866;28;20437;-73
2023/06/21 05:54:50;;;;;;;9.88;7.10;;;;;;;21.49;100.00;98476.03;4176823;28;20048;-73
2023/06/21 05:56:52;;;;;;;11.50;7.13;;;;;;;21.53;100.00;98490.78;4171664;28;20583;-73
2023/06/21 05:58:52;;;;;;;12.67;6.97;;;;;;;21.62;100.00;98499.34;4172199;28;20548;-73
2023/06/21 06:00:54;;;;;;;10.23;7.25;;;;;;;21.69;100.00;98498.31;4172513;28;20072;-73
2023/06/21 06:02:54;;;;;;;10.02;7.63;;;;;;;21.79;100.00;98505.63;4173494;28;20423;-73
2023/06/21 06:04:54;;;;;;;11.45;7.38;;;;;;;21.92;100.00;98508.41;4179130;28;20041;-73
2023/06/21 06:06:55;;;;;;;10.20;7.43;;;;;;;22.03;100.00;98514.47;4177003;28;20385;-73
2023/06/21 06:08:55;;;;;;;11.20;7.97;;;;;;;22.13;100.00;98502.88;4178666;28;20036;-73
2023/06/21 06:10:55;;;;;;;9.00;7.05;;;;;;;22.15;100.00;98511.63;4180942;28;20660;-73
2023/06/21 06:12:56;;;;;;;11.52;7.03;;;;;;;22.26;100.00;98508.47;4176453;28;20041;-73
2023/06/21 06:14:56;;;;;;;12.38;7.80;;;;;;;22.36;100.00;98512.16;4190405;28;20044;-73
2023/06/21 06:16:56;;;;;;;11.25;7.38;;;;;;;22.41;100.00;98509.50;4189931;28;20040;-73
2023/06/21 06:18:57;;;;;;;8.27;6.72;;;;;;;22.50;100.00;98519.28;4180910;28;20068;-73
2023/06/21 06:20:57;;;;;;;8.93;7.55;;;;;;;22.55;100.00;98527.19;4182671;28;20040;-73
2023/06/21 06:22:57;;;;;;;10.63;7.50;;;;;;;22.60;100.00;98523.78;4188744;28;20068;-73
2023/06/21 06:24:58;;;;;;;13.60;8.52;;;;;;;22.67;100.00;98520.69;4184742;28;20119;-73
2023/06/21 06:26:59;;;;;;;14.20;7.55;;;;;;;22.70;100.00;98523.38;4176039;28;20152;-73
2023/06/21 06:28:59;;;;;;;8.88;7.45;;;;;;;22.72;100.00;98522.91;4187163;28;20089;-74
2023/06/21 06:30:59;;;;;;;14.85;7.68;;;;;;;22.77;100.00;98542.09;4182928;28;20061;-73
2023/06/21 06:33:00;;;;;;;7.25;6.55;;;;;;;22.84;100.00;98535.38;4175526;28;20060;-73
2023/06/21 06:35:00;;;;;;;8.32;6.55;;;;;;;22.88;100.00;98531.22;4175588;28;20056;-73
2023/06/21 06:37:00;;;;;;;8.52;6.32;;;;;;;22.95;100.00;98532.97;4182098;28;20065;-73
2023/06/21 06:39:01;;;;;;;7.43;6.22;;;;;;;22.89;100.00;98532.78;4179965;28;20037;-73
2023/06/21 06:41:01;;;;;;;9.20;7.38;;;;;;;22.92;100.00;98542.34;4175826;28;20037;-73
2023/06/21 06:43:02;;;;;;;9.88;7.05;;;;;;;23.06;100.00;98544.63;4186085;28;20127;-73
2023/06/21 06:45:02;;;;;;;7.95;7.15;;;;;;;23.11;100.00;98537.63;4189150;28;20131;-73
2023/06/21 06:47:03;;;;;;;11.20;7.25;;;;;;;23.15;100.00;98539.06;4175746;28;20059;-74
2023/06/21 06:49:03;;;;;;;8.63;6.78;;;;;;;23.24;100.00;98544.75;4175834;28;20040;-73
2023/06/21 06:51:03;;;;;;;9.05;6.88;;;;;;;23.28;100.00;98550.25;4175613;28;20079;-73
2023/06/21 06:53:05;;;;;;;9.15;7.05;;;;;;;23.35;100.00;98566.94;4187068;28;20032;-73
2023/06/21 06:55:06;;;;;;;8.83;6.97;;;;;;;23.38;100.00;98573.69;4189915;28;20032;-73
2023/06/21 06:57:06;;;;;;;9.98;7.07;;;;;;;23.39;100.00;98573.22;4187120;28;20330;-73
2023/06/21 06:59:06;;;;;;;8.25;6.95;;;;;;;23.48;100.00;98581.72;4175775;28;20389;-74
2023/06/21 07:01:07;;;;;;;7.53;6.63;;;;;;;23.56;100.00;98570.94;4173885;28;20053;-73
2023/06/21 07:03:07;;;;;;;7.30;6.30;;;;;;;23.61;100.00;98547.00;4186948;28;20064;-74
2023/06/21 07:05:07;;;;;;;8.00;6.70;;;;;;;23.64;98.59;98541.19;4190256;28;20033;-73
2023/06/21 07:07:08;;;;;;;8.10;6.60;;;;;;;23.62;96.85;98546.53;4186306;28;20228;-74
2023/06/21 07:09:08;;;;;;;9.57;6.53;;;;;;;23.54;97.31;98553.69;4175277;28;20499;-74
2023/06/21 07:11:08;;;;;;;9.88;6.78;;;;;;;23.47;98.31;98551.91;4190216;28;20098;-73
2023/06/21 07:13:09;;;;;;;9.38;6.88;;;;;;;23.45;99.14;98557.25;4187822;28;20497;-74
2023/06/21 07:15:09;;;;;;;14.13;7.07;;;;;;;23.43;99.41;98559.75;4179191;28;20051;-74
2023/06/21 07:17:10;;;;;;;8.75;6.20;;;;;;;23.44;97.82;98561.31;4174490;28;20045;-73
2023/06/21 07:19:10;;;;;;;11.52;5.68;;;;;;;23.46;97.21;98569.34;4175642;28;20128;-73
2023/06/21 07:21:10;;;;;;;6.78;6.03;;;;;;;23.54;95.33;98567.81;4186873;28;20385;-73
2023/06/21 07:23:11;;;;;;;7.72;6.13;;;;;;;23.37;93.70;98561.59;4177689;28;20040;-73
2023/06/21 07:25:12;;;;;;;7.63;5.80;;;;;;;23.35;95.22;98558.47;4175037;28;20485;-73
2023/06/21 07:27:12;;;;;;;8.35;6.20;;;;;;;23.25;93.95;98552.00;4175457;28;20041;-73
2023/06/21 07:29:12;;;;;;;6.88;5.28;;;;;;;23.13;95.72;98552.84;4189700;28;20062;-73
2023/06/21 07:31:13;;;;;;;8.70;5.40;;;;;;;23.00;94.00;98560.59;4189314;28;20072;-73
2023/06/21 07:33:13;;;;;;;6.00;4.90;;;;;;;22.85;95.28;98568.03;4177984;28;20079;-73
2023/06/21 07:35:14;;;;;;;7.05;4.95;;;;;;;22.69;94.24;98569.75;4188031;28;20079;-73
2023/06/21 07:37:15;;;;;;;6.38;4.97;;;;;;;22.66;96.11;98570.66;4178091;28;20553;-73
2023/06/21 07:39:15;;;;;;;9.57;5.65;;;;;;;22.66;96.99;98567.84;4190102;28;20053;-73
2023/06/21 07:41:15;;;;;;;6.47;5.28;;;;;;;22.80;96.31;98568.56;4184731;28;20047;-73
2023/06/21 07:43:15;;;;;;;7.43;5.30;;;;;;;22.94;96.04;98570.91;4174772;28;20041;-73
2023/06/21 07:45:16;;;;;;;6.05;5.25;;;;;;;23.04;95.04;98563.28;4175636;28;20193;-73
2023/06/21 07:47:17;;;;;;;8.02;5.20;;;;;;;23.16;96.17;98563.19;4174765;28;20037;-73
2023/06/21 07:49:17;;;;;;;8.20;5.57;;;;;;;23.27;95.10;98560.78;4174942;28;20091;-73
2023/06/21 07:51:17;;;;;;;6.43;4.80;;;;;;;23.36;93.85;98559.25;4174516;28;20041;-73
2023/06/21 07:53:18;;;;;;;6.25;5.10;;;;;;;23.42;94.06;98552.53;4174629;28;20041;-73
2023/06/21 07:55:18;;;;;;;7.53;5.68;;;;;;;23.52;94.82;98551.31;4174738;28;20043;-73
2023/06/21 07:57:18;;;;;;;6.53;5.68;;;;;;;23.49;93.66;98552.22;4174619;28;20411;-73
2023/06/21 07:59:19;;;;;;;7.85;5.32;;;;;;;23.58;93.85;98545.84;4184971;28;20074;-73
2023/06/21 08:01:19;;;;;;;6.72;5.43;;;;;;;23.48;92.67;98545.03;4178734;28;20133;-73
2023/06/21 08:03:19;;;;;;;6.50;5.63;;;;;;;23.36;92.11;98531.03;4173774;28;20094;-73
2023/06/21 08:05:20;;;;;;;7.68;5.45;;;;;;;23.45;93.71;98525.41;4174862;28;20328;-73
2023/06/21 08:07:21;;;;;;;7.68;6.15;;;;;;;23.49;94.05;98528.84;4174560;28;20051;-73
2023/06/21 08:09:21;;;;;;;7.65;6.07;;;;;;;23.47;94.50;98531.38;4174402;28;20126;-73
2023/06/21 08:11:21;;;;;;;6.40;5.80;;;;;;;23.41;93.65;98534.00;4174345;28;20045;-73
2023/06/21 08:13:22;;;;;;;6.15;5.55;;;;;;;23.45;94.23;98529.03;4173851;28;20045;-73
2023/06/21 08:15:23;;;;;;;6.72;5.65;;;;;;;23.45;94.20;98528.22;4174437;28;20047;-73
2023/06/21 08:17:23;;;;;;;9.32;6.05;;;;;;;23.44;93.18;98537.97;4174300;28;20041;-73
2023/06/21 08:19:23;;;;;;;7.13;5.97;;;;;;;23.41;94.86;98533.22;4174904;28;20485;-73
2023/06/21 08:21:24;;;;;;;8.27;5.93;;;;;;;23.44;94.46;98527.44;4174313;28;20120;-73
2023/06/21 08:23:24;;;;;;;7.38;5.45;;;;;;;23.62;94.80;98537.28;4173446;28;20074;-73
2023/06/21 08:25:24;;;;;;;10.35;6.07;;;;;;;23.86;93.91;98540.34;4174257;28;20045;-73
2023/06/21 08:27:25;;;;;;;6.32;5.30;;;;;;;23.96;92.20;98534.22;4174045;28;20505;-73
2023/06/21 08:29:25;;;;;;;6.18;5.10;;;;;;;24.12;92.73;98538.03;4180380;28;20056;-73
2023/06/21 08:31:26;;;;;;;6.90;5.85;;;;;;;24.17;89.51;98535.38;4174767;28;20087;-73
2023/06/21 08:33:26;;;;;;;5.75;5.15;;;;;;;24.09;87.39;98534.13;4173538;28;20388;-73
2023/06/21 08:35:26;;;;;;;7.93;5.57;;;;;;;24.05;88.88;98531.44;4174066;28;20136;-73
2023/06/21 08:37:27;;;;;;;9.30;6.57;;;;;;;23.98;88.66;98528.09;4174112;28;20464;-73
2023/06/21 08:39:27;;;;;;;10.35;5.75;;;;;;;24.03;90.48;98544.47;4176884;28;20496;-73
2023/06/21 08:41:29;;;;;;;7.80;5.55;;;;;;;24.12;88.50;98558.59;4188110;28;20041;-73
2023/06/21 08:43:30;;;;;;;6.53;5.88;;;;;;;24.04;89.31;98552.47;4188763;28;20036;-73
2023/06/21 08:45:30;;;;;;;7.28;6.50;;;;;;;24.07;87.10;98548.69;4177852;28;20278;-73
2023/06/21 08:47:33;;;;;;;8.43;6.20;;;;;;;24.13;88.47;98548.09;4173880;28;20037;-73
2023/06/21 08:49:40;;;;;;;7.22;6.25;;;;;;;24.17;88.40;98552.34;4174727;28;20041;-73
2023/06/21 08:51:41;;;;;;;11.35;8.88;;;;;;;24.20;88.61;98553.44;4173783;28;20124;-73
2023/06/21 08:53:46;;;;;;;10.05;7.80;;;;;;;24.33;89.31;98554.91;4173017;28;20037;-73
2023/06/21 08:55:48;;;;;;;7.78;6.90;;;;;;;24.41;88.47;98557.41;4173769;28;20049;-73
2023/06/21 08:57:57;;;;;;;7.18;6.10;;;;;;;24.49;88.29;98556.63;4173316;28;20338;-73
2023/06/21 09:00:01;;;;;;;8.95;7.18;;;;;;;24.47;89.18;98570.47;4176420;28;20040;-73
2023/06/21 09:02:22;;;;;;;7.53;6.53;;;;;;;24.29;87.83;98574.03;4187304;28;20507;-73
2023/06/21 09:04:25;;;;;;;10.75;7.88;;;;;;;24.28;88.46;98572.47;4173093;28;20044;-73
2023/06/21 09:06:26;;;;;;;10.20;8.10;;;;;;;24.24;89.81;98566.16;4173644;28;20716;-73
2023/06/21 09:08:27;;;;;;;10.85;7.18;;;;;;;24.39;88.82;98569.19;4185269;28;20037;-73
2023/06/21 09:10:28;;;;;;;9.82;8.32;;;;;;;24.56;90.95;98581.78;4187609;28;20051;-73
2023/06/21 09:12:30;;;;;;;9.05;7.00;;;;;;;24.68;89.25;98580.06;4188069;28;20058;-73
2023/06/21 09:14:31;;;;;;;9.20;7.32;;;;;;;24.60;89.81;98579.59;4181085;28;20098;-73
2023/06/21 09:16:32;;;;;;;8.27;6.95;;;;;;;24.85;89.90;98577.72;4172996;28;20151;-73
2023/06/21 09:18:38;;;;;;;8.07;6.80;;;;;;;25.05;88.95;98589.34;4173695;28;20592;-73
2023/06/21 09:20:39;;;;;;;9.57;7.20;;;;;;;24.82;87.96;98584.28;4172520;28;20033;-73
2023/06/21 09:22:40;;;;;;;8.65;6.53;;;;;;;24.91;90.35;98587.94;4172729;28;20461;-73
2023/06/21 09:24:41;;;;;;;8.75;6.80;;;;;;;24.90;89.19;98582.72;4188130;28;20128;-73